Time;durP1;ratioP1;P1;durP2;ratioP2;P2;SDS_P1;SDS_P2;PMS_P1;PMS_P2;Temp;Humidity;BMP_temperature;BMP_pressure;BME280_temperature;BME280_humidity;BME280_pressure;Samples;Min_cycle;Max_cycle;Signal;HPM_P1;HPM_P2
2023/02/17 00:00:31;;;;;;;10.30;7.43;;;;;;;-5.21;70.28;146044.81;5064878;28;20036;-64
2023/02/17 00:02:57;;;;;;;10.75;7.45;;;;;;;-5.10;69.14;146072.66;5055388;28;20045;-63
2023/02/17 00:05:24;;;;;;;9.60;6.80;;;;;;;-5.13;70.26;146063.78;5048162;28;20325;-64
2023/02/17 00:07:50;;;;;;;9.45;6.95;;;;;;;-5.06;68.99;146082.78;5044794;28;20333;-64
2023/02/17 00:10:15;;;;;;;11.50;8.05;;;;;;;-5.16;70.57;146057.44;5063865;28;20048;-64
2023/02/17 00:12:41;;;;;;;11.75;8.65;;;;;;;-5.14;70.78;146062.53;5064461;28;20043;-64
2023/02/17 00:15:07;;;;;;;10.48;7.63;;;;;;;-4.93;69.83;146114.41;5064693;28;20044;-64
2023/02/17 00:17:32;;;;;;;9.90;7.40;;;;;;;-5.15;69.84;146058.72;5064600;28;20032;-65
2023/02/17 00:19:58;;;;;;;10.68;8.10;;;;;;;-5.28;70.94;146027.09;5064679;28;20047;-64
2023/02/17 00:22:24;;;;;;;8.80;7.43;;;;;;;-5.37;69.77;146005.59;5063317;28;20205;-64
2023/02/17 00:24:49;;;;;;;11.80;8.60;;;;;;;-5.29;70.46;146024.53;5063388;28;20033;-64
2023/02/17 00:27:15;;;;;;;11.85;8.07;;;;;;;-5.21;72.27;146044.81;5064420;28;20237;-64
2023/02/17 00:29:41;;;;;;;12.43;8.10;;;;;;;-5.17;70.27;146054.94;5063244;28;20235;-63
2023/02/17 00:32:09;;;;;;;10.52;8.32;;;;;;;-5.17;70.85;146054.94;5064425;28;20102;-65
2023/02/17 00:34:35;;;;;;;11.82;8.85;;;;;;;-4.98;69.88;146100.50;5064476;28;20028;-65
2023/02/17 00:37:00;;;;;;;17.45;9.57;;;;;;;-5.06;70.37;146082.78;5063336;28;20029;-66
2023/02/17 00:39:26;;;;;;;10.65;7.82;;;;;;;-5.15;69.62;146059.97;5064135;28;20063;-67
2023/02/17 00:41:52;;;;;;;11.43;8.80;;;;;;;-5.15;69.80;146058.72;5061392;28;20126;-65
2023/02/17 00:44:20;;;;;;;11.77;7.93;;;;;;;-5.04;70.72;146086.56;5050288;28;20314;-65
2023/02/17 00:46:46;;;;;;;12.60;7.75;;;;;;;-5.16;70.68;146057.44;5064205;28;20309;-65
2023/02/17 00:49:15;;;;;;;8.15;6.57;;;;;;;-5.19;68.73;146049.84;5063736;28;20025;-64
2023/02/17 00:51:41;;;;;;;8.93;5.82;;;;;;;-4.99;69.90;146097.94;5062245;28;20306;-63
2023/02/17 00:54:07;;;;;;;7.50;6.38;;;;;;;-4.86;69.44;146130.84;5063657;28;20035;-63
2023/02/17 00:56:32;;;;;;;8.80;6.80;;;;;;;-4.75;69.83;146158.69;5062623;28;20056;-63
2023/02/17 00:58:58;;;;;;;12.00;7.68;;;;;;;-4.72;68.22;146166.34;5062707;28;20093;-64
2023/02/17 01:01:23;;;;;;;9.93;7.57;;;;;;;-4.96;69.79;146105.53;5063146;28;20088;-63
2023/02/17 01:03:49;;;;;;;9.15;6.53;;;;;;;-4.80;68.66;146144.78;5063716;28;20043;-64
2023/02/17 01:06:35;;;;;;;11.55;7.80;;;;;;;-4.70;69.71;146170.13;5063595;28;20051;-63
2023/02/17 01:09:03;;;;;;;8.93;7.18;;;;;;;-4.54;69.55;146209.38;5062386;28;20032;-62
2023/02/17 01:11:30;;;;;;;8.98;7.15;;;;;;;-4.50;69.79;146219.50;5063504;28;20305;-64
2023/02/17 01:13:56;;;;;;;9.93;8.05;;;;;;;-4.71;69.47;146167.59;5063593;28;20032;-63
2023/02/17 01:16:28;;;;;;;8.77;7.20;;;;;;;-5.00;69.49;146095.41;5058331;28;20025;-63
2023/02/17 01:18:53;;;;;;;;;;;;;;;-4.78;69.30;146151.09;5061241;28;20025;-63
2023/02/17 01:21:25;;;;;;;10.15;7.60;;;;;;;-4.96;69.59;146105.53;5063277;28;19904;-63
2023/02/17 01:23:53;;;;;;;9.85;7.78;;;;;;;-4.79;71.07;146148.56;5054755;28;20024;-63
2023/02/17 01:26:21;;;;;;;12.15;7.57;;;;;;;-4.75;68.85;146158.69;5063314;28;20063;-62
2023/02/17 01:28:48;;;;;;;10.35;7.60;;;;;;;-4.57;70.62;146203.03;5063591;28;20051;-62
2023/02/17 01:31:14;;;;;;;10.77;7.75;;;;;;;-4.72;69.28;146166.34;5060175;28;20025;-62
2023/02/17 01:33:40;;;;;;;10.40;7.57;;;;;;;-4.73;69.87;146162.50;5057632;28;20474;-63
2023/02/17 01:36:08;;;;;;;10.10;7.10;;;;;;;-5.18;70.78;146052.38;5052336;28;20329;-64
2023/02/17 01:38:34;;;;;;;10.80;7.80;;;;;;;-5.18;70.50;146052.38;5058005;28;20064;-63
2023/02/17 01:41:00;;;;;;;11.77;9.23;;;;;;;-5.20;71.30;146048.59;5051696;28;20103;-64
2023/02/17 01:43:26;;;;;;;11.68;8.95;;;;;;;-5.23;73.18;146039.72;5050704;28;20124;-63
2023/02/17 01:45:54;;;;;;;11.52;9.15;;;;;;;-5.17;73.14;146054.94;5043535;28;20049;-64
2023/02/17 01:48:29;;;;;;;10.60;8.73;;;;;;;-5.02;71.54;146091.63;5062276;28;20052;-65
2023/02/17 01:51:04;;;;;;;11.68;7.97;;;;;;;-5.10;72.21;146072.66;5055239;28;20032;-63
2023/02/17 01:53:40;;;;;;;10.75;8.18;;;;;;;-5.24;72.69;146037.22;5055538;28;20055;-63
2023/02/17 01:56:07;;;;;;;12.15;8.52;;;;;;;-5.29;73.37;146024.53;5062662;28;20037;-64
2023/02/17 01:58:33;;;;;;;12.48;8.52;;;;;;;-5.22;72.65;146043.50;5062895;28;20024;-64
2023/02/17 02:01:02;;;;;;;10.25;7.60;;;;;;;-5.40;72.46;145999.25;5062659;28;20025;-63
2023/02/17 02:03:31;;;;;;;9.70;7.50;;;;;;;-5.42;72.83;145992.91;5051131;28;20376;-63
2023/02/17 02:05:59;;;;;;;10.50;8.27;;;;;;;-5.23;71.97;146039.72;5058417;28;20048;-63
2023/02/17 02:08:30;;;;;;;10.43;8.18;;;;;;;-5.15;73.05;146059.97;5062357;28;20059;-63
2023/02/17 02:10:56;;;;;;;10.93;8.35;;;;;;;-5.00;72.14;146095.41;5060416;28;20020;-63
2023/02/17 02:13:22;;;;;;;12.25;8.23;;;;;;;-4.94;72.23;146110.63;5061164;28;20328;-64
2023/02/17 02:16:52;;;;;;;10.32;8.00;;;;;;;-4.72;72.47;146165.03;5061279;28;20035;-64
2023/02/17 02:19:39;;;;;;;13.07;9.75;;;;;;;-4.69;73.01;146172.63;5059715;28;20355;-64
2023/02/17 02:22:13;;;;;;;10.75;8.38;;;;;;;-4.81;71.60;146142.28;5060463;28;20045;-65
2023/02/17 02:25:22;;;;;;;13.43;9.73;;;;;;;-5.10;73.43;146071.34;5056810;28;20032;-64
2023/02/17 02:28:06;;;;;;;11.57;7.97;;;;;;;-5.02;71.59;146091.63;5060003;28;20100;-64
2023/02/17 02:30:52;;;;;;;12.82;9.45;;;;;;;-4.99;73.16;146097.94;5059334;28;20036;-63
2023/02/17 02:33:42;;;;;;;14.43;9.25;;;;;;;-4.81;73.67;146143.53;5058135;28;20040;-63
2023/02/17 02:36:17;;;;;;;13.25;10.05;;;;;;;-4.88;72.84;146127.06;5061854;28;20044;-65
2023/02/17 02:38:52;;;;;;;13.15;9.93;;;;;;;-5.02;74.51;146091.63;5048794;28;20075;-64
2023/02/17 02:41:27;;;;;;;14.80;10.82;;;;;;;-4.91;74.04;146119.47;5061687;28;20052;-63
2023/02/17 02:43:53;;;;;;;16.08;11.85;;;;;;;-4.93;75.10;146113.13;5062134;28;20112;-65
2023/02/17 02:46:19;;;;;;;13.45;10.45;;;;;;;-5.21;75.33;146044.81;5061690;28;20108;-64
2023/02/17 02:48:46;;;;;;;19.17;13.13;;;;;;;-5.02;75.67;146091.63;5052589;28;20088;-64
2023/02/17 02:51:28;;;;;;;18.05;12.02;;;;;;;-5.44;76.22;145987.88;5054494;28;20133;-65
2023/02/17 02:54:03;;;;;;;20.20;13.15;;;;;;;-5.41;76.79;145995.47;5049502;28;20025;-66
2023/02/17 02:56:49;;;;;;;20.20;13.75;;;;;;;-5.17;75.42;146054.94;5061476;28;20040;-66
2023/02/17 02:59:49;;;;;;;19.67;13.70;;;;;;;-5.43;76.55;145990.38;5061539;28;20371;-65
2023/02/17 03:02:29;;;;;;;20.05;14.32;;;;;;;-5.42;76.68;145994.16;5062172;28;20040;-65
2023/02/17 03:05:04;;;;;;;23.60;15.30;;;;;;;-5.45;78.33;145985.34;5044638;28;20225;-65
2023/02/17 03:07:39;;;;;;;20.85;14.25;;;;;;;-5.44;78.04;145989.13;5050361;28;20048;-66
2023/02/17 03:10:06;;;;;;;21.13;14.55;;;;;;;-5.43;77.28;145991.69;5061790;28;20224;-65
2023/02/17 03:12:33;;;;;;;20.83;14.85;;;;;;;-5.32;76.49;146016.97;5058235;28;20037;-65
2023/02/17 03:15:25;;;;;;;22.85;14.52;;;;;;;-5.65;78.34;145936.00;5062100;28;20020;-65
2023/02/17 03:17:50;;;;;;;22.20;15.25;;;;;;;-5.39;77.00;146001.78;5061677;28;20297;-64
2023/02/17 03:20:16;;;;;;;21.45;15.52;;;;;;;-5.32;77.89;146016.97;5060810;28;20032;-64
2023/02/17 03:22:46;;;;;;;23.55;15.43;;;;;;;-5.27;77.94;146029.63;5060422;28;20066;-64
2023/02/17 03:25:12;;;;;;;20.42;14.63;;;;;;;-5.27;78.01;146029.63;5058836;28;20028;-65
2023/02/17 03:27:39;;;;;;;23.30;15.45;;;;;;;-5.42;77.74;145994.16;5052728;28;20083;-63
2023/02/17 03:30:05;;;;;;;23.40;15.38;;;;;;;-5.39;78.09;146001.78;5053486;28;20104;-63
2023/02/17 03:32:31;;;;;;;21.35;15.07;;;;;;;-5.30;78.01;146023.31;5060934;28;20063;-64
2023/02/17 03:34:56;;;;;;;24.60;16.10;;;;;;;-5.40;77.32;145999.25;5061082;28;20032;-65
2023/02/17 03:37:22;;;;;;;23.13;15.85;;;;;;;-5.34;78.00;146011.88;5061224;28;20094;-64
2023/02/17 03:39:48;;;;;;;24.05;15.73;;;;;;;-5.52;77.54;145968.88;5061317;28;20025;-63
2023/02/17 03:42:13;;;;;;;22.90;16.67;;;;;;;-5.50;78.62;145972.66;5061141;28;20035;-62
2023/02/17 03:44:39;;;;;;;24.52;15.70;;;;;;;-5.48;77.12;145979.00;5061232;28;20067;-64
2023/02/17 03:47:05;;;;;;;22.73;15.55;;;;;;;-5.45;78.49;145986.59;5060955;28;20073;-64
2023/02/17 03:49:31;;;;;;;26.23;17.88;;;;;;;-5.34;78.52;146011.88;5055032;28;20041;-64
2023/02/17 03:51:58;;;;;;;23.98;16.20;;;;;;;-5.32;77.37;146018.22;5057235;28;20025;-64
2023/02/17 03:54:24;;;;;;;24.95;16.85;;;;;;;-5.34;78.27;146011.88;5060946;28;20036;-64
2023/02/17 03:56:50;;;;;;;21.92;14.77;;;;;;;-5.52;77.71;145968.88;5059633;28;20091;-64
2023/02/17 03:59:15;;;;;;;22.27;15.85;;;;;;;-5.38;78.27;146003.03;5060928;28;20025;-63
2023/02/17 04:01:41;;;;;;;26.00;16.52;;;;;;;-5.44;78.30;145989.13;5060884;28;20021;-63
2023/02/17 04:04:06;;;;;;;25.02;18.05;;;;;;;-5.46;77.89;145984.03;5050675;28;20097;-64
2023/02/17 04:06:32;;;;;;;23.88;16.10;;;;;;;-5.50;78.72;145973.97;5053670;28;20036;-63
2023/02/17 04:08:58;;;;;;;25.45;16.05;;;;;;;-5.24;77.44;146037.22;5060845;28;20221;-64
2023/02/17 04:11:23;;;;;;;26.08;15.63;;;;;;;-5.38;77.94;146004.28;5061696;28;20017;-64
2023/02/17 04:13:49;;;;;;;25.45;16.23;;;;;;;-5.32;78.11;146018.22;5057310;28;20025;-64
2023/02/17 04:16:15;;;;;;;21.35;15.00;;;;;;;-5.36;76.52;146008.09;5054552;28;20101;-65
2023/02/17 04:18:40;;;;;;;22.10;15.18;;;;;;;-5.26;76.90;146033.44;5064533;28;20028;-64
2023/02/17 04:21:07;;;;;;;20.75;13.05;;;;;;;-5.29;75.31;146025.78;5055487;28;20045;-64
2023/02/17 04:23:34;;;;;;;22.17;14.07;;;;;;;-5.35;76.89;146009.38;5064467;28;20021;-64
2023/02/17 04:26:00;;;;;;;18.33;12.75;;;;;;;-5.44;75.63;145989.13;5064696;28;20031;-64
2023/02/17 04:28:26;;;;;;;23.25;13.13;;;;;;;-5.41;77.37;145996.72;5063892;28;20088;-64
2023/02/17 04:30:51;;;;;;;18.40;13.40;;;;;;;-5.16;75.76;146056.19;5064175;28;20029;-65
2023/02/17 04:33:17;;;;;;;21.25;12.88;;;;;;;-5.00;75.27;146095.41;5062699;28;20029;-65
2023/02/17 04:35:43;;;;;;;17.17;10.55;;;;;;;-5.04;74.41;146086.56;5064296;28;20021;-65
2023/02/17 04:38:09;;;;;;;14.07;10.77;;;;;;;-4.99;74.65;146097.94;5064126;28;20040;-64
2023/02/17 04:40:36;;;;;;;15.43;11.20;;;;;;;-5.12;74.08;146066.31;5064036;28;20029;-63
2023/02/17 04:43:03;;;;;;;12.68;9.77;;;;;;;-5.02;74.92;146091.63;5064048;28;20314;-64
2023/02/17 04:45:29;;;;;;;11.00;8.50;;;;;;;-4.89;72.90;146124.56;5055310;28;20067;-64
2023/02/17 04:47:54;;;;;;;14.10;9.63;;;;;;;-5.05;73.24;146085.28;5063929;28;20055;-63
2023/02/17 04:50:20;;;;;;;12.93;9.02;;;;;;;-5.01;74.03;146094.16;5060995;28;20029;-64
2023/02/17 04:52:46;;;;;;;11.43;8.35;;;;;;;-4.73;74.47;146163.78;5063801;28;20072;-64
2023/02/17 04:55:11;;;;;;;12.40;8.98;;;;;;;-4.80;72.15;146144.78;5063827;28;20221;-65
2023/02/17 04:57:38;;;;;;;13.25;8.75;;;;;;;-4.64;72.54;146184.06;5061769;28;20029;-63
2023/02/17 05:00:05;;;;;;;12.15;9.05;;;;;;;-4.66;73.42;146180.22;5063637;28;20083;-65
2023/02/17 05:02:30;;;;;;;14.05;9.48;;;;;;;-4.73;73.56;146162.50;5062493;28;20044;-67
2023/02/17 05:04:56;;;;;;;15.43;10.77;;;;;;;-4.99;74.63;146099.19;5063553;28;20036;-67
2023/02/17 05:07:21;;;;;;;14.13;10.82;;;;;;;-5.09;74.28;146075.19;5062483;28;20162;-66
2023/02/17 05:09:47;;;;;;;18.52;12.68;;;;;;;-5.17;75.89;146054.94;5057380;28;20087;-65
2023/02/17 05:12:13;;;;;;;19.20;12.73;;;;;;;-5.10;76.02;146071.34;5063305;28;20029;-68
2023/02/17 05:14:38;;;;;;;19.85;13.82;;;;;;;-5.24;76.73;146037.22;5063244;28;20360;-66
2023/02/17 05:17:04;;;;;;;21.77;13.98;;;;;;;-5.27;76.57;146030.88;5062966;28;20028;-66
2023/02/17 05:19:30;;;;;;;23.10;15.25;;;;;;;-5.65;77.58;145936.00;5046605;28;20053;-65
2023/02/17 05:21:55;;;;;;;21.15;14.13;;;;;;;-5.65;79.17;145936.00;5063456;28;20031;-66
2023/02/17 05:24:21;;;;;;;21.80;14.68;;;;;;;-5.55;78.90;145961.28;5062527;28;20020;-66
2023/02/17 05:26:46;;;;;;;22.08;15.25;;;;;;;-5.74;78.99;145914.50;5062521;28;20037;-66
2023/02/17 05:29:12;;;;;;;25.08;16.42;;;;;;;-5.67;78.36;145932.22;5063177;28;20063;-65
2023/02/17 05:31:37;;;;;;;20.95;14.20;;;;;;;-5.68;77.68;145928.41;5062762;28;20281;-65
2023/02/17 05:34:03;;;;;;;24.52;16.00;;;;;;;-5.65;78.72;145936.00;5061626;28;20032;-65
2023/02/17 05:36:29;;;;;;;23.20;15.88;;;;;;;-5.43;77.82;145991.69;5062903;28;20033;-64
2023/02/17 05:38:54;;;;;;;22.42;14.98;;;;;;;-5.68;78.06;145929.66;5063067;28;20029;-66
2023/02/17 05:41:20;;;;;;;21.35;14.32;;;;;;;-5.66;78.90;145934.72;5061553;28;20095;-66
2023/02/17 05:43:46;;;;;;;24.40;15.48;;;;;;;-5.43;78.83;145991.69;5043189;28;20041;-64
2023/02/17 05:46:12;;;;;;;23.80;15.75;;;;;;;-5.26;79.38;146033.44;5058859;28;20105;-65
2023/02/17 05:48:38;;;;;;;25.02;16.75;;;;;;;-5.13;77.97;146063.78;5052877;28;20295;-66
2023/02/17 05:51:04;;;;;;;23.88;15.45;;;;;;;-5.11;77.00;146068.84;5054806;28;20032;-65
2023/02/17 05:53:30;;;;;;;20.98;14.52;;;;;;;-5.17;78.58;146053.63;5062273;28;20025;-65
2023/02/17 05:55:55;;;;;;;19.05;13.38;;;;;;;-5.37;78.13;146005.59;5062776;28;20083;-65
2023/02/17 05:58:21;;;;;;;19.23;12.73;;;;;;;-5.40;79.09;145997.97;5061851;28;20029;-66
2023/02/17 06:00:46;;;;;;;19.85;14.13;;;;;;;-5.28;77.46;146028.34;5062685;28;20036;-65
2023/02/17 06:03:12;;;;;;;20.40;14.20;;;;;;;-5.03;77.37;146090.38;5062697;28;20025;-65
2023/02/17 06:05:38;;;;;;;22.52;15.07;;;;;;;-4.83;77.11;146138.47;5062735;28;20182;-65
2023/02/17 06:08:04;;;;;;;22.40;14.93;;;;;;;-5.06;77.76;146081.47;5062156;28;20052;-65
2023/02/17 06:10:30;;;;;;;22.95;14.95;;;;;;;-5.33;79.45;146014.44;5062084;28;20052;-66
2023/02/17 06:12:55;;;;;;;21.92;13.77;;;;;;;-5.27;78.40;146030.88;5062320;28;20049;-66
2023/02/17 06:15:21;;;;;;;23.33;14.55;;;;;;;-5.22;79.73;146042.25;5061777;28;20033;-66
2023/02/17 06:17:46;;;;;;;20.55;14.32;;;;;;;-5.12;79.57;146067.56;5061958;28;20032;-65
2023/02/17 06:20:13;;;;;;;19.92;13.57;;;;;;;-5.16;79.89;146057.44;5061935;28;20017;-66
2023/02/17 06:22:38;;;;;;;21.02;13.35;;;;;;;-4.97;79.28;146104.28;5062395;28;20221;-66
2023/02/17 06:25:04;;;;;;;21.20;13.40;;;;;;;-5.12;78.98;146067.56;5061973;28;20040;-66
2023/02/17 06:27:30;;;;;;;20.02;13.43;;;;;;;-4.88;78.04;146127.06;5062081;28;20036;-66
2023/02/17 06:29:55;;;;;;;18.23;12.55;;;;;;;-5.02;79.46;146091.63;5061644;28;20044;-66
2023/02/17 06:32:21;;;;;;;19.67;12.18;;;;;;;-5.18;78.83;146051.13;5061633;28;20344;-64
2023/02/17 06:34:47;;;;;;;17.75;13.18;;;;;;;-4.73;77.59;146162.50;5061087;28;20083;-72
2023/02/17 06:37:12;;;;;;;19.05;11.98;;;;;;;-5.03;77.53;146090.38;5059490;28;20021;-66
2023/02/17 06:39:38;;;;;;;19.80;13.32;;;;;;;-4.90;79.59;146120.75;5061293;28;20067;-64
2023/02/17 06:42:03;;;;;;;19.40;13.38;;;;;;;-4.68;77.75;146176.41;5050852;28;20029;-65
2023/02/17 06:44:30;;;;;;;18.88;10.98;;;;;;;-5.11;78.92;146070.09;5073261;28;20070;-65
2023/02/17 06:46:55;;;;;;;12.43;8.73;;;;;;;-4.97;76.61;146103.00;5113841;28;20028;-65
2023/02/17 06:49:21;;;;;;;15.38;10.25;;;;;;;-4.76;77.59;146154.91;5107876;28;20027;-66
2023/02/17 06:51:47;;;;;;;15.00;10.30;;;;;;;-5.04;77.72;146087.81;5101869;28;20300;-65
2023/02/17 06:54:13;;;;;;;15.25;11.25;;;;;;;-4.79;77.88;146148.56;5107841;28;20028;-66
2023/02/17 06:56:38;;;;;;;14.20;10.05;;;;;;;-4.88;77.57;146125.81;5105136;28;20238;-64
2023/02/17 06:59:04;;;;;;;14.98;10.43;;;;;;;-4.83;76.36;146138.47;5113449;28;20055;-65
2023/02/17 07:01:30;;;;;;;13.23;9.32;;;;;;;-4.76;75.90;146154.91;5108654;28;20031;-65
2023/02/17 07:03:56;;;;;;;12.20;8.07;;;;;;;-5.13;76.34;146063.78;5098156;28;20028;-66
2023/02/17 07:06:22;;;;;;;15.45;10.05;;;;;;;-4.90;76.18;146120.75;5109220;28;20190;-65
2023/02/17 07:08:48;;;;;;;13.68;9.48;;;;;;;-4.81;76.35;146142.28;5107024;28;20058;-65
2023/02/17 07:11:15;;;;;;;12.25;9.05;;;;;;;-5.21;76.93;146044.81;5105982;28;20020;-65
2023/02/17 07:13:41;;;;;;;11.15;9.00;;;;;;;-4.69;76.07;146172.63;5101631;28;20333;-66
2023/02/17 07:16:08;;;;;;;12.55;9.40;;;;;;;-4.79;77.04;146147.31;5116692;28;20050;-65
2023/02/17 07:18:34;;;;;;;13.25;9.48;;;;;;;-4.72;75.99;146166.34;5100157;28;20026;-65
2023/02/17 07:20:59;;;;;;;14.15;10.75;;;;;;;-4.57;77.25;146201.78;5107866;28;20043;-65
2023/02/17 07:23:25;;;;;;;13.95;9.50;;;;;;;-4.50;75.83;146219.50;5112794;28;20024;-65
2023/02/17 07:25:51;;;;;;;15.50;8.93;;;;;;;-4.74;75.36;146161.25;5108190;28;20095;-65
2023/02/17 07:28:16;;;;;;;11.65;8.70;;;;;;;-4.62;76.05;146190.34;5117767;28;20103;-65
2023/02/17 07:30:42;;;;;;;10.85;7.95;;;;;;;-4.58;73.51;146199.22;5109335;28;20016;-64
2023/02/17 07:33:09;;;;;;;10.23;7.25;;;;;;;-4.72;73.48;146166.34;5109185;28;20122;-65
2023/02/17 07:35:45;;;;;;;10.18;7.53;;;;;;;-4.73;73.30;146163.78;5112013;28;20081;-65
2023/02/17 07:38:11;;;;;;;10.38;7.95;;;;;;;-4.54;73.04;146209.38;5083314;28;20056;-65
2023/02/17 07:40:37;;;;;;;11.85;9.00;;;;;;;-4.04;73.39;146332.22;5082839;28;20024;-66
2023/02/17 07:43:03;;;;;;;12.95;8.70;;;;;;;-4.00;72.08;146342.34;5092012;28;20135;-65
2023/02/17 07:45:29;;;;;;;11.77;8.23;;;;;;;-4.02;71.49;146338.56;5101274;28;20056;-65
2023/02/17 07:47:54;;;;;;;10.65;7.95;;;;;;;-4.07;70.07;146325.88;5092464;28;20027;-65
2023/02/17 07:50:20;;;;;;;11.73;8.40;;;;;;;-3.91;70.56;146363.88;5108212;28;20059;-64
2023/02/17 07:52:46;;;;;;;11.10;8.45;;;;;;;-3.52;70.92;146460.16;5104735;28;20042;-65
2023/02/17 07:55:11;;;;;;;12.43;8.93;;;;;;;-3.75;69.62;146403.16;5096034;28;20220;-65
2023/02/17 07:57:37;;;;;;;11.35;8.68;;;;;;;-3.50;70.13;146466.50;5105894;28;20031;-65
2023/02/17 08:00:04;;;;;;;10.90;8.38;;;;;;;-3.62;69.67;146434.81;5103403;28;20182;-65
2023/02/17 08:02:29;;;;;;;12.80;7.88;;;;;;;-3.51;68.72;146463.97;5089540;28;20047;-66
2023/02/17 08:04:55;;;;;;;10.45;8.40;;;;;;;-3.53;68.88;146457.66;5105096;28;20020;-65
2023/02/17 08:07:21;;;;;;;10.93;8.25;;;;;;;-3.36;68.87;146499.50;5096454;28;20060;-65
2023/02/17 08:13:18;;;;;;;9.95;8.07;;;;;;;-3.25;68.40;146527.38;5102701;28;20478;-65
2023/02/17 08:15:34;;;;;;;13.02;9.25;;;;;;;-3.12;68.54;146559.09;5095433;28;20064;-65
2023/02/17 08:18:00;;;;;;;10.45;8.25;;;;;;;-3.02;66.96;146583.13;5102997;28;20030;-66
2023/02/17 08:20:26;;;;;;;12.05;8.77;;;;;;;-3.02;67.75;146583.13;5110004;28;20028;-65
2023/02/17 08:22:52;;;;;;;11.60;9.18;;;;;;;-3.08;67.78;146569.19;5104846;28;20372;-65
2023/02/17 08:25:18;;;;;;;12.20;9.18;;;;;;;-3.35;67.45;146502.00;5104569;28;20039;-65
2023/02/17 08:27:43;;;;;;;13.13;8.52;;;;;;;-3.38;67.46;146495.66;5106711;28;20032;-66
2023/02/17 08:30:10;;;;;;;11.98;8.82;;;;;;;-3.26;67.83;146523.53;5111481;28;20023;-65
2023/02/17 08:32:35;;;;;;;13.43;8.70;;;;;;;-3.13;67.74;146556.53;5088609;28;20028;-66
2023/02/17 08:35:01;;;;;;;11.63;8.20;;;;;;;-3.06;67.72;146574.28;5087239;28;20077;-68
2023/02/17 08:37:30;;;;;;;12.85;8.60;;;;;;;-3.41;67.30;146488.06;5113014;28;20016;-65
2023/02/17 08:39:57;;;;;;;12.55;7.93;;;;;;;-3.68;68.37;146422.19;5106971;28;20099;-65
2023/02/17 08:42:25;;;;;;;11.60;8.68;;;;;;;-3.56;68.44;146450.03;5113298;28;20035;-67
2023/02/17 08:44:50;;;;;;;12.02;8.77;;;;;;;-3.54;68.55;146456.38;5105142;28;20062;-66
2023/02/17 08:47:16;;;;;;;18.33;12.85;;;;;;;-3.34;67.67;146504.53;5104193;28;20027;-66
2023/02/17 08:49:41;;;;;;;11.98;8.30;;;;;;;-3.88;68.17;146372.72;5113376;28;20031;-66
2023/02/17 08:52:07;;;;;;;11.75;9.02;;;;;;;-3.36;68.76;146500.75;5104109;28;20353;-65
2023/02/17 08:54:33;;;;;;;13.10;9.07;;;;;;;-3.44;68.39;146479.19;5108851;28;20024;-65
2023/02/17 08:56:59;;;;;;;11.27;8.07;;;;;;;-3.79;68.27;146394.31;5103651;28;20035;-66
2023/02/17 08:59:24;;;;;;;11.77;8.60;;;;;;;-3.45;68.29;146477.91;5101883;28;20047;-65
2023/02/17 09:01:50;;;;;;;11.10;8.98;;;;;;;-3.57;68.23;146448.78;5103515;28;20024;-66
2023/02/17 09:04:16;;;;;;;14.10;9.20;;;;;;;-3.30;67.98;146515.94;5102956;28;20089;-66
2023/02/17 09:06:47;;;;;;;11.15;9.00;;;;;;;-2.91;67.82;146611.03;5102255;28;20061;-66
2023/02/17 09:09:16;;;;;;;13.25;10.05;;;;;;;-2.52;68.33;146706.13;5100269;28;20024;-67
2023/02/17 09:11:42;;;;;;;11.80;8.82;;;;;;;-2.54;66.66;146702.34;5102340;28;20036;-66
2023/02/17 09:14:08;;;;;;;13.52;9.35;;;;;;;-2.93;67.09;146604.72;5102339;28;20228;-65
2023/02/17 09:16:34;;;;;;;15.18;10.38;;;;;;;-3.15;68.07;146551.44;5099988;28;20038;-65
2023/02/17 09:19:00;;;;;;;13.13;9.82;;;;;;;-2.77;67.84;146645.28;5102717;28;20024;-68
2023/02/17 09:21:25;;;;;;;13.60;9.93;;;;;;;-2.69;67.39;146665.56;5100934;28;20065;-66
2023/02/17 09:23:52;;;;;;;13.25;9.57;;;;;;;-2.87;68.15;146619.91;5104509;28;20023;-65
2023/02/17 09:26:19;;;;;;;11.68;9.43;;;;;;;-2.78;67.24;146642.72;5114536;28;20304;-66
2023/02/17 09:28:45;;;;;;;12.23;9.07;;;;;;;-3.02;68.02;146584.44;5109356;28;20045;-65
2023/02/17 09:31:13;;;;;;;13.65;10.00;;;;;;;-2.65;67.67;146675.72;5102628;28;20082;-66
2023/02/17 09:33:40;;;;;;;13.48;10.48;;;;;;;-2.63;66.86;146680.78;5099397;28;20110;-66
2023/02/17 09:36:08;;;;;;;12.55;9.80;;;;;;;-2.70;66.50;146661.78;5103600;28;20027;-66
2023/02/17 09:38:34;;;;;;;13.13;10.02;;;;;;;-2.48;66.72;146717.59;5098563;28;20313;-66
2023/02/17 09:41:12;;;;;;;11.73;9.50;;;;;;;-2.73;66.27;146655.44;5091060;28;20032;-66
2023/02/17 09:43:38;;;;;;;10.70;8.68;;;;;;;-2.96;67.09;146599.63;5111529;28;20118;-65
2023/02/17 09:46:20;;;;;;;15.45;9.98;;;;;;;-2.93;67.26;146604.72;5106541;28;20052;-66
2023/02/17 09:48:48;;;;;;;13.57;9.15;;;;;;;-2.75;66.17;146650.38;5102761;28;20193;-66
2023/02/17 09:51:20;;;;;;;11.55;8.70;;;;;;;-3.07;66.77;146570.47;5088410;28;20024;-66
2023/02/17 09:53:53;;;;;;;12.45;9.13;;;;;;;-2.84;67.09;146628.78;5088488;28;20035;-65
2023/02/17 09:56:28;;;;;;;11.45;9.10;;;;;;;-2.64;66.90;146676.97;5111337;28;20208;-65
2023/02/17 09:58:58;;;;;;;12.18;9.27;;;;;;;-2.70;66.44;146663.03;5094916;28;20465;-66
2023/02/17 10:01:33;;;;;;;12.27;9.23;;;;;;;-2.40;66.37;146735.34;5112486;28;20312;-66
2023/02/17 10:04:06;;;;;;;12.02;9.45;;;;;;;-2.54;66.99;146701.09;5108123;28;20087;-64
2023/02/17 10:06:38;;;;;;;13.45;9.20;;;;;;;-2.78;66.84;146642.72;5112114;28;20099;-65
2023/02/17 10:09:23;;;;;;;11.55;8.73;;;;;;;-2.49;67.14;146715.03;5110721;28;20256;-65
2023/02/17 10:11:55;;;;;;;10.43;8.48;;;;;;;-2.68;67.17;146668.13;5064660;28;20110;-65
2023/02/17 10:14:42;;;;;;;11.68;9.27;;;;;;;-2.95;67.09;146602.19;5101313;28;20095;-65
2023/02/17 10:17:55;;;;;;;11.40;9.43;;;;;;;-2.57;67.27;146693.50;5099274;28;20217;-66
2023/02/17 10:20:32;;;;;;;11.40;9.45;;;;;;;-2.69;67.47;146664.34;5035037;28;20049;-65
2023/02/17 10:23:19;;;;;;;10.23;8.63;;;;;;;-2.50;67.26;146711.25;5097968;28;20039;-65
2023/02/17 10:26:12;;;;;;;12.52;9.82;;;;;;;-2.64;67.41;146678.28;5115495;28;20062;-65
2023/02/17 10:28:42;;;;;;;12.73;9.48;;;;;;;-2.54;66.84;146701.09;5090192;28;20039;-66
2023/02/17 10:31:13;;;;;;;13.83;9.60;;;;;;;-2.65;66.74;146674.44;5107817;28;20035;-64
2023/02/17 10:34:05;;;;;;;12.45;9.35;;;;;;;-2.93;67.45;146605.97;5098396;28;20042;-65
2023/02/17 10:37:01;;;;;;;12.80;9.25;;;;;;;-2.93;67.80;146604.72;5102081;28;20050;-65
2023/02/17 10:39:47;;;;;;;13.82;10.52;;;;;;;-2.97;68.15;146597.06;5108489;28;20129;-64
2023/02/17 10:42:31;;;;;;;15.48;10.93;;;;;;;-3.02;68.85;146583.13;5108447;28;20311;-67
2023/02/17 10:45:04;;;;;;;14.25;10.98;;;;;;;-2.78;68.00;146642.72;5103589;28;20077;-66
2023/02/17 10:47:32;;;;;;;14.00;11.38;;;;;;;-2.66;67.83;146671.94;5083658;28;20046;-65
2023/02/17 10:50:00;;;;;;;16.90;12.68;;;;;;;-2.75;67.89;146650.38;5096643;28;20341;-65
2023/02/17 10:52:37;;;;;;;15.20;11.57;;;;;;;-2.70;67.44;146663.03;5081250;28;20028;-66
2023/02/17 10:55:32;;;;;;;15.88;12.30;;;;;;;-2.64;67.92;146678.28;5093744;28;20051;-66
2023/02/17 10:58:38;;;;;;;17.80;12.15;;;;;;;-2.43;68.38;146729.00;5081639;28;20084;-65
2023/02/17 11:01:05;;;;;;;15.30;11.32;;;;;;;-2.54;68.13;146701.09;5071310;28;20354;-66
2023/02/17 11:03:32;;;;;;;14.32;10.88;;;;;;;-3.02;68.12;146584.44;5091606;28;20043;-66
2023/02/17 11:06:03;;;;;;;15.85;11.25;;;;;;;-2.80;68.40;146637.69;5081086;28;20028;-65
2023/02/17 11:08:31;;;;;;;15.63;10.95;;;;;;;-2.46;68.30;146721.41;5054225;28;20029;-66
2023/02/17 11:11:03;;;;;;;15.13;10.98;;;;;;;-2.61;68.27;146684.59;5055593;28;20028;-65
2023/02/17 11:13:33;;;;;;;14.88;11.45;;;;;;;-2.90;67.78;146612.31;5073716;28;20088;-65
2023/02/17 11:15:59;;;;;;;13.20;10.05;;;;;;;-2.93;67.93;146605.97;5077825;28;20025;-65
2023/02/17 11:18:30;;;;;;;14.02;10.85;;;;;;;-2.85;68.29;146626.28;5043540;28;20075;-64
2023/02/17 11:21:06;;;;;;;14.13;11.35;;;;;;;-2.66;67.99;146671.94;5069133;28;20062;-64
2023/02/17 11:23:32;;;;;;;15.77;11.57;;;;;;;-2.52;67.38;146706.13;5088963;28;20036;-65
2023/02/17 11:26:10;;;;;;;16.73;11.65;;;;;;;-2.36;66.68;146746.75;5068507;28;20031;-64